createdAt,value
2018-09-13T00:00:36.604Z,16.30
2018-09-13T00:03:05.135Z,16.30
2018-09-13T00:05:33.699Z,16.30
2018-09-13T00:08:02.206Z,16.20
2018-09-13T00:10:30.798Z,16.20
2018-09-13T00:12:59.299Z,16.20
2018-09-13T00:15:27.829Z,16.20
2018-09-13T00:17:56.387Z,16.20
2018-09-13T00:20:24.888Z,16.20
2018-09-13T00:22:53.439Z,16.20
2018-09-13T00:25:21.986Z,16.20
2018-09-13T00:27:50.558Z,16.10
2018-09-13T00:30:19.063Z,16.10
2018-09-13T00:32:47.610Z,16.10
2018-09-13T00:35:16.124Z,16.10
2018-09-13T00:37:44.661Z,16.10
2018-09-13T00:40:13.235Z,16.10
2018-09-13T00:42:41.763Z,16.10
2018-09-13T00:45:10.282Z,16.10
2018-09-13T00:47:43.257Z,16.10
2018-09-13T00:50:12.506Z,16.10
2018-09-13T00:52:41.118Z,16.20
2018-09-13T00:55:09.668Z,16.20
2018-09-13T00:57:38.434Z,16.10
2018-09-13T01:00:07.352Z,16.20
2018-09-13T01:02:36.075Z,16.10
2018-09-13T01:05:04.674Z,16.10
2018-09-13T01:07:33.505Z,16.10
2018-09-13T01:10:02.109Z,16.10
2018-09-13T01:12:30.646Z,16.10
2018-09-13T01:14:59.163Z,16.10
2018-09-13T01:17:27.672Z,16.10
2018-09-13T01:19:56.206Z,16.10
2018-09-13T01:22:24.706Z,16.10
2018-09-13T01:24:55.971Z,16.10
2018-09-13T01:27:25.869Z,16.10
2018-09-13T01:32:44.630Z,16.10
2018-09-13T01:35:13.149Z,16.00
2018-09-13T01:37:41.882Z,16.00
2018-09-13T01:40:10.414Z,16.00
2018-09-13T01:42:38.927Z,16.10
2018-09-13T01:45:07.498Z,16.10
2018-09-13T01:47:36.001Z,16.10
2018-09-13T01:50:04.641Z,16.00
2018-09-13T01:52:33.182Z,16.10
2018-09-13T01:55:01.750Z,16.10
2018-09-13T01:57:30.275Z,16.10
2018-09-13T01:59:58.877Z,16.10
2018-09-13T02:02:27.417Z,16.00
2018-09-13T02:04:55.956Z,16.10
2018-09-13T02:07:24.469Z,16.10
2018-09-13T02:09:53.080Z,16.10
2018-09-13T02:12:21.609Z,16.10
2018-09-13T02:14:50.132Z,16.00
2018-09-13T02:17:18.670Z,16.10
2018-09-13T02:19:47.196Z,16.00
2018-09-13T02:22:15.734Z,16.10
2018-09-13T02:24:44.262Z,16.00
2018-09-13T02:27:12.797Z,16.00
2018-09-13T02:29:41.302Z,15.90
2018-09-13T02:32:09.859Z,15.90
2018-09-13T02:34:38.399Z,15.80
2018-09-13T02:37:06.945Z,15.80
2018-09-13T02:39:35.500Z,15.80
2018-09-13T02:42:04.123Z,15.80
2018-09-13T02:44:32.606Z,15.80
2018-09-13T02:47:01.157Z,15.80
2018-09-13T02:49:29.652Z,15.70
2018-09-13T02:51:58.207Z,15.70
2018-09-13T02:54:26.717Z,15.70
2018-09-13T02:56:55.203Z,15.70
2018-09-13T02:59:23.735Z,15.70
2018-09-13T03:01:52.259Z,15.70
2018-09-13T03:04:20.803Z,15.60
2018-09-13T03:06:49.366Z,15.60
2018-09-13T03:09:17.922Z,15.60
2018-09-13T03:11:46.421Z,15.50
2018-09-13T03:14:14.974Z,15.50
2018-09-13T03:16:43.501Z,15.50
2018-09-13T03:19:12.191Z,15.50
2018-09-13T03:21:40.702Z,15.50
2018-09-13T03:24:09.285Z,15.50
2018-09-13T03:26:37.808Z,15.40
2018-09-13T03:29:06.423Z,15.40
2018-09-13T03:31:34.933Z,15.30
2018-09-13T03:34:03.595Z,15.30
2018-09-13T03:36:32.118Z,15.30
2018-09-13T03:39:00.629Z,15.30
2018-09-13T03:41:29.106Z,15.20
2018-09-13T03:43:57.622Z,15.20
2018-09-13T03:46:26.123Z,15.20
2018-09-13T03:48:54.649Z,15.20
2018-09-13T03:51:23.182Z,15.20
2018-09-13T03:53:51.699Z,15.20
2018-09-13T03:56:20.178Z,15.30
2018-09-13T03:58:48.726Z,15.30
2018-09-13T04:01:17.275Z,15.30
2018-09-13T04:03:45.830Z,15.30
2018-09-13T04:06:14.365Z,15.30
2018-09-13T04:08:43.243Z,15.30
2018-09-13T04:11:11.774Z,15.30
2018-09-13T04:13:40.382Z,15.30
2018-09-13T04:16:08.935Z,15.30
2018-09-13T04:18:37.583Z,15.30
2018-09-13T04:21:06.173Z,15.30
2018-09-13T04:23:34.691Z,15.30
2018-09-13T04:26:03.203Z,15.30
2018-09-13T04:28:31.729Z,15.20
2018-09-13T04:31:00.272Z,15.20
2018-09-13T04:33:28.832Z,15.20
2018-09-13T04:35:57.554Z,15.20
2018-09-13T04:38:26.133Z,15.20
2018-09-13T04:40:54.649Z,15.10
2018-09-13T04:43:23.266Z,15.10
2018-09-13T04:45:51.834Z,15.10
2018-09-13T04:48:20.389Z,15.10
2018-09-13T04:50:48.903Z,15.10
2018-09-13T04:53:17.560Z,15.10
2018-09-13T04:55:46.160Z,15.10
2018-09-13T04:58:14.767Z,15.10
2018-09-13T05:00:43.342Z,15.10
2018-09-13T05:03:11.979Z,15.10
2018-09-13T05:05:40.550Z,15.10
2018-09-13T05:08:09.095Z,15.10
2018-09-13T05:10:37.651Z,15.10
2018-09-13T05:13:06.413Z,15.10
2018-09-13T05:15:34.951Z,15.10
2018-09-13T05:18:03.478Z,15.10
2018-09-13T05:20:32.061Z,15.10
2018-09-13T05:23:00.630Z,15.10
2018-09-13T05:25:29.278Z,15.10
2018-09-13T05:27:57.822Z,15.10
2018-09-13T05:30:26.382Z,15.20
2018-09-13T05:32:54.922Z,15.20
2018-09-13T05:35:23.483Z,15.20
2018-09-13T05:37:51.994Z,15.20
2018-09-13T05:40:20.633Z,15.20
2018-09-13T05:42:49.221Z,15.20
2018-09-13T05:45:17.965Z,15.20
2018-09-13T05:47:46.638Z,15.30
2018-09-13T05:50:15.224Z,15.30
2018-09-13T05:52:43.747Z,15.30
2018-09-13T05:55:12.315Z,15.30
2018-09-13T05:57:40.835Z,15.40
2018-09-13T06:00:09.393Z,15.40
2018-09-13T06:02:38.069Z,15.50
2018-09-13T06:05:06.650Z,15.60
2018-09-13T06:07:35.162Z,15.70
2018-09-13T06:10:04.011Z,15.80
2018-09-13T06:12:32.522Z,15.80
2018-09-13T06:15:01.056Z,15.80
2018-09-13T06:17:29.575Z,15.70
2018-09-13T06:19:58.225Z,15.70
2018-09-13T06:22:26.745Z,15.60
2018-09-13T06:24:55.253Z,15.60
2018-09-13T06:27:23.878Z,15.70
2018-09-13T06:29:52.407Z,15.70
2018-09-13T06:32:20.945Z,15.70
2018-09-13T06:34:49.483Z,15.70
2018-09-13T06:37:18.011Z,15.80
2018-09-13T06:39:46.574Z,15.90
2018-09-13T06:42:15.198Z,15.90
2018-09-13T06:44:43.712Z,16.00
2018-09-13T06:47:12.294Z,16.10
2018-09-13T06:49:40.819Z,16.20
2018-09-13T06:52:09.405Z,16.20
2018-09-13T06:54:38.067Z,16.20
2018-09-13T06:57:06.620Z,16.20
2018-09-13T06:59:35.166Z,16.30
2018-09-13T07:02:03.760Z,16.30
2018-09-13T07:04:32.276Z,16.30
2018-09-13T07:07:00.870Z,16.30
2018-09-13T07:09:29.511Z,16.40
2018-09-13T07:11:58.087Z,16.50
2018-09-13T07:14:26.634Z,16.60
2018-09-13T07:16:55.226Z,16.70
2018-09-13T07:19:23.759Z,16.70
2018-09-13T07:21:52.361Z,16.80
2018-09-13T07:24:20.879Z,16.90
2018-09-13T07:26:49.514Z,17.00
2018-09-13T07:29:18.035Z,17.00
2018-09-13T07:31:46.555Z,17.10
2018-09-13T07:34:15.187Z,17.10
2018-09-13T07:36:43.715Z,17.10
2018-09-13T07:39:13.855Z,17.00
2018-09-13T07:41:42.389Z,16.90
2018-09-13T07:44:10.973Z,16.70
2018-09-13T07:46:39.570Z,16.70
2018-09-13T07:49:08.234Z,16.80
2018-09-13T07:51:36.694Z,16.90
2018-09-13T07:54:05.292Z,17.00
2018-09-13T07:56:33.839Z,17.10
2018-09-13T07:59:02.401Z,17.20
2018-09-13T08:01:30.938Z,17.30
2018-09-13T08:03:59.470Z,17.50
2018-09-13T08:06:27.973Z,17.60
2018-09-13T08:08:56.560Z,17.80
2018-09-13T08:11:25.070Z,17.80
2018-09-13T08:13:53.693Z,17.80
2018-09-13T08:16:22.226Z,17.90
2018-09-13T08:18:50.730Z,17.80
2018-09-13T08:21:19.443Z,17.80
2018-09-13T08:23:47.982Z,17.90
2018-09-13T08:26:16.499Z,18.10
2018-09-13T08:28:45.037Z,18.20
2018-09-13T08:31:13.543Z,18.20
2018-09-13T08:33:42.166Z,18.10
2018-09-13T08:36:11.778Z,18.00
2018-09-13T08:38:40.289Z,18.00
2018-09-13T08:41:08.907Z,18.00
2018-09-13T08:43:37.399Z,18.20
2018-09-13T08:46:05.962Z,18.20
2018-09-13T08:48:34.496Z,18.30
2018-09-13T08:51:03.022Z,18.30
2018-09-13T08:53:31.563Z,18.30
2018-09-13T08:56:00.093Z,18.40
2018-09-13T08:58:28.618Z,18.50
2018-09-13T09:00:57.570Z,18.60
2018-09-13T09:03:26.062Z,18.80
2018-09-13T09:05:54.650Z,19.00
2018-09-13T09:08:23.154Z,18.90
2018-09-13T09:10:51.770Z,18.70
2018-09-13T09:13:20.354Z,18.70
2018-09-13T09:15:48.860Z,18.70
2018-09-13T09:18:17.386Z,18.60
2018-09-13T09:20:45.934Z,18.60
2018-09-13T09:23:14.526Z,18.40
2018-09-13T09:25:43.029Z,18.30
2018-09-13T09:28:11.546Z,18.30
2018-09-13T09:30:44.562Z,18.30
2018-09-13T09:33:13.234Z,18.40
2018-09-13T09:35:41.744Z,18.40
2018-09-13T09:38:10.306Z,18.30
2018-09-13T09:40:38.855Z,18.30
2018-09-13T09:43:07.434Z,18.30
2018-09-13T09:45:35.928Z,18.40
2018-09-13T09:48:04.508Z,18.50
2018-09-13T09:50:32.998Z,18.60
2018-09-13T09:53:01.698Z,18.50
2018-09-13T09:55:30.219Z,18.50
2018-09-13T09:57:58.887Z,18.50
2018-09-13T10:00:32.761Z,18.60
2018-09-13T10:03:01.366Z,18.60
2018-09-13T10:05:29.931Z,18.50
2018-09-13T10:07:58.479Z,18.50
2018-09-13T10:10:27.062Z,18.50
2018-09-13T10:12:55.613Z,18.70
2018-09-13T10:15:29.403Z,18.90
2018-09-13T10:18:03.193Z,19.00
2018-09-13T10:20:36.943Z,19.00
2018-09-13T10:23:11.054Z,19.00
2018-09-13T10:25:44.989Z,18.90
2018-09-13T10:28:18.917Z,18.80
2018-09-13T10:30:52.810Z,18.70
2018-09-13T10:33:26.576Z,18.50
2018-09-13T10:36:00.588Z,18.20
2018-09-13T10:38:34.362Z,18.10
2018-09-13T10:41:08.234Z,18.10
2018-09-13T10:43:41.890Z,18.30
2018-09-13T10:46:15.860Z,18.50
2018-09-13T10:48:49.600Z,18.60
2018-09-13T10:51:23.391Z,18.60
2018-09-13T10:53:56.088Z,18.70
2018-09-13T10:56:24.664Z,18.70
2018-09-13T10:58:53.187Z,18.60
2018-09-13T11:01:21.757Z,18.50
2018-09-13T11:03:50.458Z,18.50
2018-09-13T11:06:19.025Z,18.30
2018-09-13T11:08:47.926Z,18.30
2018-09-13T11:11:16.515Z,18.20
2018-09-13T11:13:51.678Z,18.10
2018-09-13T11:16:20.846Z,18.10
2018-09-13T11:18:49.343Z,18.00
2018-09-13T11:21:18.102Z,17.80
2018-09-13T11:23:46.689Z,17.70
2018-09-13T11:26:15.195Z,17.70
2018-09-13T11:28:43.759Z,17.70
2018-09-13T11:31:12.242Z,17.70
2018-09-13T11:33:41.275Z,17.70
2018-09-13T11:36:09.807Z,17.80
2018-09-13T11:38:38.329Z,17.90
2018-09-13T11:41:07.568Z,18.20
2018-09-13T11:43:35.958Z,18.40
2018-09-13T11:46:04.454Z,18.60
2018-09-13T11:48:33.096Z,18.80
2018-09-13T11:51:02.154Z,19.00
2018-09-13T11:53:30.734Z,19.10
2018-09-13T11:55:59.238Z,18.90
2018-09-13T11:58:27.758Z,18.80
2018-09-13T12:00:56.326Z,18.50
2018-09-13T12:03:24.870Z,18.40
2018-09-13T12:05:53.394Z,18.30
2018-09-13T12:08:21.965Z,17.90
2018-09-13T12:10:50.476Z,17.70
2018-09-13T12:13:19.038Z,17.70
2018-09-13T12:15:47.583Z,17.90
2018-09-13T12:18:16.099Z,18.10
2018-09-13T12:20:44.664Z,18.50
2018-09-13T12:23:13.162Z,19.10
2018-09-13T12:25:41.702Z,19.30
2018-09-13T12:28:10.195Z,19.60
2018-09-13T12:30:38.741Z,19.70
2018-09-13T12:33:07.394Z,19.70
2018-09-13T12:35:35.971Z,19.40
2018-09-13T12:38:04.540Z,19.40
2018-09-13T12:40:33.130Z,19.40
2018-09-13T12:43:01.557Z,19.20
2018-09-13T12:45:30.087Z,19.10
2018-09-13T12:47:58.590Z,18.90
2018-09-13T12:50:27.202Z,18.90
2018-09-13T12:52:55.700Z,18.90
2018-09-13T12:55:28.470Z,18.90
2018-09-13T12:57:56.963Z,18.90
2018-09-13T13:00:25.590Z,19.00
2018-09-13T13:02:54.127Z,19.10
2018-09-13T13:05:22.645Z,19.10
2018-09-13T13:07:51.235Z,19.10
2018-09-13T13:10:19.864Z,18.90
2018-09-13T13:12:48.473Z,18.80
2018-09-13T13:15:16.982Z,18.60
2018-09-13T13:17:45.505Z,18.50
2018-09-13T13:20:14.131Z,18.80
2018-09-13T13:22:42.657Z,19.10
2018-09-13T13:25:11.182Z,19.40
2018-09-13T13:27:39.752Z,19.60
2018-09-13T13:30:08.284Z,19.50
2018-09-13T13:32:36.839Z,19.50
2018-09-13T13:35:05.404Z,19.50
2018-09-13T13:37:33.954Z,19.50
2018-09-13T13:40:02.458Z,19.20
2018-09-13T13:42:31.038Z,19.00
2018-09-13T13:44:59.552Z,18.90
2018-09-13T13:47:28.021Z,18.80
2018-09-13T13:49:56.547Z,18.80
2018-09-13T13:52:25.093Z,18.80
2018-09-13T13:54:53.642Z,19.00
2018-09-13T13:57:22.129Z,19.30
2018-09-13T13:59:50.835Z,19.60
2018-09-13T14:02:19.263Z,19.90
2018-09-13T14:04:47.891Z,20.20
2018-09-13T14:07:16.389Z,20.60
2018-09-13T14:09:45.085Z,20.70
2018-09-13T14:12:13.495Z,20.50
2018-09-13T14:14:42.068Z,20.40
2018-09-13T14:17:10.649Z,20.20
2018-09-13T14:19:39.203Z,20.20
2018-09-13T14:22:07.762Z,20.20
2018-09-13T14:24:36.276Z,20.30
2018-09-13T14:27:05.231Z,20.40
2018-09-13T14:29:33.764Z,20.50
2018-09-13T14:32:02.295Z,20.70
2018-09-13T14:34:30.829Z,20.60
2018-09-13T14:36:59.480Z,20.70
2018-09-13T14:39:28.258Z,20.70
2018-09-13T14:41:56.871Z,20.70
2018-09-13T14:44:25.406Z,20.40
2018-09-13T14:46:53.935Z,20.20
2018-09-13T14:49:23.129Z,20.20
2018-09-13T14:51:51.728Z,19.90
2018-09-13T14:54:20.318Z,19.80
2018-09-13T14:56:49.094Z,19.70
2018-09-13T14:59:17.598Z,19.60
2018-09-13T15:01:46.140Z,19.50
2018-09-13T15:04:14.662Z,19.50
2018-09-13T15:06:43.190Z,19.30
2018-09-13T15:09:12.771Z,19.20
2018-09-13T15:11:42.443Z,19.10
2018-09-13T15:14:10.933Z,18.90
2018-09-13T15:16:39.467Z,18.70
2018-09-13T15:19:08.009Z,18.60
2018-09-13T15:21:36.660Z,18.50
2018-09-13T15:24:05.132Z,18.60
2018-09-13T15:26:33.676Z,18.60
2018-09-13T15:29:02.207Z,18.60
2018-09-13T15:31:30.752Z,18.70
2018-09-13T15:33:59.261Z,18.70
2018-09-13T15:36:27.747Z,18.90
2018-09-13T15:38:56.292Z,18.90
2018-09-13T15:41:24.873Z,19.10
2018-09-13T15:43:53.866Z,19.20
2018-09-13T15:46:22.369Z,19.40
2018-09-13T15:48:50.928Z,19.50
2018-09-13T15:51:21.500Z,19.60
2018-09-13T15:53:50.033Z,19.60
2018-09-13T15:56:18.619Z,19.70
2018-09-13T15:58:47.347Z,19.70
2018-09-13T16:01:19.434Z,19.70
2018-09-13T16:03:49.160Z,19.70
2018-09-13T16:06:19.019Z,19.50
2018-09-13T16:08:48.389Z,19.50
2018-09-13T16:11:18.629Z,19.40
2018-09-13T16:13:47.475Z,19.40
2018-09-13T16:16:16.179Z,19.30
2018-09-13T16:18:44.821Z,19.30
2018-09-13T16:21:15.468Z,19.20
2018-09-13T16:23:55.876Z,19.10
2018-09-13T16:26:28.979Z,18.90
2018-09-13T16:28:57.798Z,18.80
2018-09-13T16:31:26.348Z,18.80
2018-09-13T16:33:54.969Z,18.70
2018-09-13T16:36:29.328Z,18.70
2018-09-13T16:39:03.094Z,18.60
2018-09-13T16:41:40.899Z,18.60
2018-09-13T16:44:13.662Z,18.50
2018-09-13T16:46:47.547Z,18.50
2018-09-13T16:49:16.106Z,18.40
2018-09-13T16:51:44.844Z,18.40
2018-09-13T16:54:13.672Z,18.30
2018-09-13T16:56:42.752Z,18.30
2018-09-13T16:59:11.699Z,18.20
2018-09-13T17:01:40.220Z,18.10
2018-09-13T17:04:09.140Z,18.10
2018-09-13T17:06:37.678Z,18.10
2018-09-13T17:09:09.144Z,18.00
2018-09-13T17:11:37.905Z,18.00
2018-09-13T17:14:06.572Z,18.00
2018-09-13T17:16:35.122Z,17.90
2018-09-13T17:19:03.648Z,17.90
2018-09-13T17:21:32.179Z,17.90
2018-09-13T17:24:00.701Z,17.80
2018-09-13T17:26:29.224Z,17.80
2018-09-13T17:28:57.727Z,17.70
2018-09-13T17:31:26.301Z,17.70
2018-09-13T17:33:54.881Z,17.70
2018-09-13T17:36:23.387Z,17.60
2018-09-13T17:38:51.918Z,17.60
2018-09-13T17:41:20.510Z,17.50
2018-09-13T17:43:49.257Z,17.50
2018-09-13T17:46:17.870Z,17.40
2018-09-13T17:48:46.510Z,17.30
2018-09-13T17:51:14.999Z,17.30
2018-09-13T17:53:43.550Z,17.20
2018-09-13T17:56:12.027Z,17.20
2018-09-13T17:58:40.591Z,17.20
2018-09-13T18:01:09.139Z,17.20
2018-09-13T18:03:37.754Z,17.20
2018-09-13T18:06:06.242Z,17.10
2018-09-13T18:08:34.875Z,17.10
2018-09-13T18:11:03.507Z,17.10
2018-09-13T18:13:32.051Z,17.10
2018-09-13T18:16:01.062Z,17.00
2018-09-13T18:18:29.585Z,17.00
2018-09-13T18:20:58.120Z,17.00
2018-09-13T18:23:26.688Z,16.90
2018-09-13T18:25:55.195Z,16.90
2018-09-13T18:28:23.759Z,16.90
2018-09-13T18:30:52.261Z,16.80
2018-09-13T18:33:20.801Z,16.80
2018-09-13T18:35:49.430Z,16.80
2018-09-13T18:38:17.979Z,16.80
2018-09-13T18:40:46.554Z,16.80
2018-09-13T18:43:15.052Z,16.80
2018-09-13T18:45:43.892Z,16.70
2018-09-13T18:48:12.485Z,16.70
2018-09-13T18:50:41.046Z,16.70
2018-09-13T18:53:09.555Z,16.70
2018-09-13T18:55:38.168Z,16.70
2018-09-13T18:58:06.739Z,16.70
2018-09-13T19:00:35.344Z,16.70
2018-09-13T19:03:03.874Z,16.70
2018-09-13T19:05:32.462Z,16.60
2018-09-13T19:08:01.008Z,16.60
2018-09-13T19:10:29.591Z,16.60
2018-09-13T19:13:01.112Z,16.60
2018-09-13T19:15:29.661Z,16.60
2018-09-13T19:17:58.179Z,16.60
2018-09-13T19:20:26.748Z,16.70
2018-09-13T19:22:55.262Z,16.70
2018-09-13T19:25:23.851Z,16.70
2018-09-13T19:27:53.255Z,16.60
2018-09-13T19:30:21.867Z,16.60
2018-09-13T19:32:50.421Z,16.60
2018-09-13T19:35:19.009Z,16.60
2018-09-13T19:37:47.615Z,16.60
2018-09-13T19:40:16.116Z,16.50
2018-09-13T19:42:45.215Z,16.50
2018-09-13T19:45:13.696Z,16.50
2018-09-13T19:47:42.274Z,16.50
2018-09-13T19:50:10.757Z,16.50
2018-09-13T19:52:39.313Z,16.50
2018-09-13T19:55:08.114Z,16.50
2018-09-13T19:57:36.710Z,16.40
2018-09-13T20:00:05.562Z,16.40
2018-09-13T20:02:34.384Z,16.40
2018-09-13T20:05:03.043Z,16.30
2018-09-13T20:07:31.654Z,16.40
2018-09-13T20:10:00.269Z,16.40
2018-09-13T20:12:28.851Z,16.40
2018-09-13T20:14:57.835Z,16.30
2018-09-13T20:17:26.401Z,16.30
2018-09-13T20:19:54.904Z,16.30
2018-09-13T20:22:23.433Z,16.20
2018-09-13T20:24:51.952Z,16.20
2018-09-13T20:27:20.484Z,16.20
2018-09-13T20:29:49.039Z,16.20
2018-09-13T20:32:17.606Z,16.20
2018-09-13T20:34:46.219Z,16.10
2018-09-13T20:37:14.786Z,16.20
2018-09-13T20:39:43.326Z,16.10
2018-09-13T20:42:11.824Z,16.10
2018-09-13T20:44:40.355Z,16.10
2018-09-13T20:47:08.852Z,16.10
2018-09-13T20:49:37.378Z,16.10
2018-09-13T20:52:05.914Z,16.10
2018-09-13T20:54:34.456Z,16.10
2018-09-13T20:57:02.947Z,16.10
2018-09-13T20:59:31.545Z,16.10
2018-09-13T21:02:00.063Z,16.20
2018-09-13T21:04:28.616Z,16.20
2018-09-13T21:06:57.136Z,16.10
2018-09-13T21:09:25.661Z,16.20
2018-09-13T21:11:54.211Z,16.10
2018-09-13T21:14:22.731Z,16.10
2018-09-13T21:16:51.285Z,16.00
2018-09-13T21:19:19.774Z,16.00
2018-09-13T21:21:48.403Z,15.90
2018-09-13T21:24:17.054Z,15.90
2018-09-13T21:26:45.577Z,15.80
2018-09-13T21:29:14.050Z,15.70
2018-09-13T21:31:42.611Z,15.70
2018-09-13T21:34:11.167Z,15.60
2018-09-13T21:36:40.055Z,15.50
2018-09-13T21:39:10.530Z,15.30
2018-09-13T21:41:39.091Z,15.10
2018-09-13T21:44:07.582Z,15.00
2018-09-13T21:46:36.153Z,14.80
2018-09-13T21:49:04.651Z,14.70
2018-09-13T21:51:33.173Z,14.50
2018-09-13T21:54:01.667Z,14.40
2018-09-13T21:56:30.171Z,14.30
2018-09-13T21:58:58.662Z,14.10
2018-09-13T22:01:27.230Z,14.00
2018-09-13T22:03:55.744Z,13.90
2018-09-13T22:06:24.298Z,13.80
2018-09-13T22:08:52.842Z,13.70
2018-09-13T22:11:21.445Z,13.70
2018-09-13T22:13:49.925Z,13.60
2018-09-13T22:16:18.429Z,13.60
2018-09-13T22:18:47.043Z,13.50
2018-09-13T22:21:15.655Z,13.50
2018-09-13T22:23:44.183Z,13.40
2018-09-13T22:26:12.730Z,13.40
2018-09-13T22:28:41.248Z,13.30
2018-09-13T22:31:09.783Z,13.20
2018-09-13T22:33:38.330Z,13.10
2018-09-13T22:36:06.858Z,13.00
2018-09-13T22:38:35.408Z,13.00
2018-09-13T22:41:03.898Z,12.90
2018-09-13T22:43:41.027Z,12.80
2018-09-13T22:46:09.614Z,12.80
2018-09-13T22:48:38.124Z,12.70
2018-09-13T22:51:06.625Z,12.70
2018-09-13T22:53:35.209Z,12.70
2018-09-13T22:56:03.671Z,12.70
2018-09-13T22:58:32.272Z,12.60
2018-09-13T23:01:00.750Z,12.60
2018-09-13T23:03:29.341Z,12.50
2018-09-13T23:05:57.848Z,12.50
2018-09-13T23:08:26.330Z,12.40
2018-09-13T23:10:54.898Z,12.40
2018-09-13T23:13:23.733Z,12.40
2018-09-13T23:15:52.336Z,12.30
2018-09-13T23:18:20.785Z,12.30
2018-09-13T23:20:49.325Z,12.30
2018-09-13T23:23:18.016Z,12.30
2018-09-13T23:25:46.543Z,12.20
2018-09-13T23:28:15.026Z,12.20
2018-09-13T23:30:43.589Z,12.10
2018-09-13T23:33:12.100Z,12.00
2018-09-13T23:35:40.638Z,12.00
2018-09-13T23:38:09.203Z,12.00
2018-09-13T23:40:37.768Z,11.90
2018-09-13T23:43:06.217Z,11.90
2018-09-13T23:45:34.730Z,11.90
2018-09-13T23:48:03.303Z,12.00
2018-09-13T23:50:31.844Z,12.00
2018-09-13T23:53:00.322Z,12.00
2018-09-13T23:55:28.825Z,11.90
2018-09-13T23:57:57.322Z,11.90
